createdAt,value
2017-01-05T00:00:04.320Z,1007
2017-01-05T00:01:10.340Z,1007
2017-01-05T00:02:16.370Z,1007
2017-01-05T00:03:22.386Z,1007
2017-01-05T00:04:28.403Z,1007
2017-01-05T00:05:34.427Z,1007
2017-01-05T00:06:40.437Z,1007
2017-01-05T00:07:46.453Z,1007
2017-01-05T00:08:52.469Z,1007
2017-01-05T00:09:58.496Z,1007
2017-01-05T00:11:04.507Z,1007
2017-01-05T00:12:10.528Z,1007
2017-01-05T00:13:16.556Z,1007
2017-01-05T00:14:22.573Z,1007
2017-01-05T00:15:28.596Z,1007
2017-01-05T00:16:34.618Z,1007
2017-01-05T00:17:40.641Z,1007
2017-01-05T00:18:46.665Z,1007
2017-01-05T00:19:52.679Z,1007
2017-01-05T00:20:58.703Z,1007
2017-01-05T00:22:04.722Z,1007
2017-01-05T00:23:10.742Z,1008
2017-01-05T00:24:16.758Z,1007
2017-01-05T00:25:22.777Z,1008
2017-01-05T00:26:28.797Z,1007
2017-01-05T00:27:34.823Z,1008
2017-01-05T00:28:40.839Z,1007
2017-01-05T00:29:46.860Z,1008
2017-01-05T00:30:52.885Z,1008
2017-01-05T00:31:58.908Z,1008
2017-01-05T00:33:04.923Z,1008
2017-01-05T00:34:10.942Z,1008
2017-01-05T00:35:16.960Z,1008
2017-01-05T00:36:22.979Z,1008
2017-01-05T00:37:28.996Z,1008
2017-01-05T00:38:35.018Z,1008
2017-01-05T00:39:41.039Z,1008
2017-01-05T00:40:47.056Z,1008
2017-01-05T00:41:53.074Z,1008
2017-01-05T00:42:59.099Z,1008
2017-01-05T00:44:05.118Z,1008
2017-01-05T00:45:11.126Z,1008
2017-01-05T00:46:17.142Z,1008
2017-01-05T00:47:23.161Z,1008
2017-01-05T00:48:29.189Z,1008
2017-01-05T00:49:35.205Z,1008
2017-01-05T00:50:41.222Z,1008
2017-01-05T00:51:47.249Z,1008
2017-01-05T00:52:53.258Z,1008
2017-01-05T00:53:59.278Z,1008
2017-01-05T00:55:05.299Z,1008
2017-01-05T00:56:11.316Z,1008
2017-01-05T00:57:17.343Z,1008
2017-01-05T00:58:23.377Z,1008
2017-01-05T00:59:29.385Z,1009
2017-01-05T01:00:35.407Z,1008
2017-01-05T01:01:41.427Z,1009
2017-01-05T01:02:47.455Z,1009
2017-01-05T01:03:53.472Z,1009
2017-01-05T01:04:59.496Z,1009
2017-01-05T01:06:05.505Z,1008
2017-01-05T01:07:11.530Z,1009
2017-01-05T01:08:17.549Z,1009
2017-01-05T01:09:23.576Z,1009
2017-01-05T01:10:29.589Z,1009
2017-01-05T01:11:35.605Z,1009
2017-01-05T01:12:41.624Z,1009
2017-01-05T01:13:47.656Z,1009
2017-01-05T01:14:53.674Z,1009
2017-01-05T01:15:59.697Z,1009
2017-01-05T01:17:05.717Z,1009
2017-01-05T01:18:11.749Z,1009
2017-01-05T01:19:17.757Z,1009
2017-01-05T01:20:23.776Z,1009
2017-01-05T01:21:29.789Z,1009
2017-01-05T01:22:35.806Z,1009
2017-01-05T01:23:41.833Z,1009
2017-01-05T01:24:47.854Z,1009
2017-01-05T01:25:53.879Z,1009
2017-01-05T01:26:59.889Z,1009
2017-01-05T01:28:05.915Z,1009
2017-01-05T01:29:11.937Z,1009
2017-01-05T01:30:17.958Z,1009
2017-01-05T01:31:23.970Z,1009
2017-01-05T01:32:29.993Z,1009
2017-01-05T01:33:36.019Z,1009
2017-01-05T01:34:42.026Z,1009
2017-01-05T01:35:48.043Z,1009
2017-01-05T01:36:54.067Z,1009
2017-01-05T01:38:00.089Z,1009
2017-01-05T01:39:06.098Z,1009
2017-01-05T01:40:12.116Z,1009
2017-01-05T01:41:18.139Z,1009
2017-01-05T01:42:24.169Z,1009
2017-01-05T01:43:30.191Z,1009
2017-01-05T01:44:36.207Z,1009
2017-01-05T01:45:42.225Z,1010
2017-01-05T01:46:48.241Z,1010
2017-01-05T01:47:54.260Z,1010
2017-01-05T01:49:00.272Z,1010
2017-01-05T01:50:06.296Z,1010
2017-01-05T01:51:12.314Z,1010
2017-01-05T01:52:18.329Z,1010
2017-01-05T01:53:24.350Z,1010
2017-01-05T01:54:30.370Z,1010
2017-01-05T01:55:36.374Z,1010
2017-01-05T01:56:42.389Z,1010
2017-01-05T01:57:48.413Z,1010
2017-01-05T01:58:54.434Z,1010
2017-01-05T02:00:00.462Z,1010
2017-01-05T02:01:06.483Z,1010
2017-01-05T02:02:12.508Z,1010
2017-01-05T02:03:18.530Z,1010
2017-01-05T02:04:24.539Z,1010
2017-01-05T02:05:30.558Z,1010
2017-01-05T02:06:36.572Z,1010
2017-01-05T02:07:42.600Z,1010
2017-01-05T02:08:48.623Z,1010
2017-01-05T02:09:54.643Z,1010
2017-01-05T02:11:00.665Z,1010
2017-01-05T02:12:06.691Z,1010
2017-01-05T02:13:12.709Z,1010
2017-01-05T02:14:18.725Z,1010
2017-01-05T02:15:24.740Z,1010
2017-01-05T02:16:30.764Z,1010
2017-01-05T02:17:36.787Z,1010
2017-01-05T02:18:42.808Z,1010
2017-01-05T02:19:48.828Z,1010
2017-01-05T02:20:54.844Z,1010
2017-01-05T02:22:00.862Z,1010
2017-01-05T02:23:06.872Z,1010
2017-01-05T02:24:12.895Z,1010
2017-01-05T02:25:18.913Z,1010
2017-01-05T02:26:24.935Z,1010
2017-01-05T02:27:30.955Z,1010
2017-01-05T02:28:36.980Z,1010
2017-01-05T02:29:42.997Z,1010
2017-01-05T02:30:49.023Z,1010
2017-01-05T02:31:55.041Z,1011
2017-01-05T02:33:01.057Z,1010
2017-01-05T02:34:07.066Z,1010
2017-01-05T02:35:13.081Z,1010
2017-01-05T02:36:19.101Z,1010
2017-01-05T02:37:25.124Z,1010
2017-01-05T02:38:31.133Z,1011
2017-01-05T02:39:37.155Z,1010
2017-01-05T02:40:43.179Z,1011
2017-01-05T02:41:49.200Z,1010
2017-01-05T02:42:55.214Z,1011
2017-01-05T02:44:01.244Z,1011
2017-01-05T02:45:07.258Z,1011
2017-01-05T02:46:13.283Z,1011
2017-01-05T02:47:19.297Z,1011
2017-01-05T02:48:25.324Z,1011
2017-01-05T02:49:31.348Z,1011
2017-01-05T02:50:37.354Z,1011
2017-01-05T02:51:43.368Z,1011
2017-01-05T02:52:48.725Z,1011
2017-01-05T02:53:54.746Z,1011
2017-01-05T02:55:00.766Z,1011
2017-01-05T02:56:06.786Z,1011
2017-01-05T02:57:12.809Z,1011
2017-01-05T02:58:18.834Z,1011
2017-01-05T02:59:24.859Z,1011
2017-01-05T03:00:30.875Z,1011
2017-01-05T03:01:36.890Z,1011
2017-01-05T03:02:42.915Z,1011
2017-01-05T03:03:48.937Z,1011
2017-01-05T03:04:54.963Z,1011
2017-01-05T03:06:00.986Z,1011
2017-01-05T03:07:07.006Z,1011
2017-01-05T03:08:13.023Z,1011
2017-01-05T03:09:19.041Z,1011
2017-01-05T03:10:25.068Z,1011
2017-01-05T03:11:31.086Z,1011
2017-01-05T03:12:37.112Z,1011
2017-01-05T03:13:43.134Z,1011
2017-01-05T03:14:49.153Z,1011
2017-01-05T03:15:55.167Z,1011
2017-01-05T03:17:01.189Z,1011
2017-01-05T03:18:07.204Z,1011
2017-01-05T03:19:13.215Z,1011
2017-01-05T03:20:19.244Z,1011
2017-01-05T03:21:25.266Z,1011
2017-01-05T03:22:31.289Z,1011
2017-01-05T03:23:37.303Z,1011
2017-01-05T03:24:43.330Z,1011
2017-01-05T03:25:49.345Z,1012
2017-01-05T03:26:55.359Z,1012
2017-01-05T03:28:01.366Z,1012
2017-01-05T03:29:07.392Z,1012
2017-01-05T03:30:13.411Z,1012
2017-01-05T03:31:19.432Z,1012
2017-01-05T03:32:25.450Z,1012
2017-01-05T03:33:31.468Z,1012
2017-01-05T03:34:37.489Z,1012
2017-01-05T03:35:43.503Z,1012
2017-01-05T03:36:49.514Z,1012
2017-01-05T03:37:55.536Z,1012
2017-01-05T03:39:01.553Z,1012
2017-01-05T03:40:07.575Z,1012
2017-01-05T03:41:13.589Z,1012
2017-01-05T03:42:19.610Z,1012
2017-01-05T03:43:25.625Z,1012
2017-01-05T03:44:31.639Z,1012
2017-01-05T03:45:37.658Z,1012
2017-01-05T03:46:43.681Z,1012
2017-01-05T03:47:49.695Z,1012
2017-01-05T03:48:55.712Z,1012
2017-01-05T03:50:01.740Z,1012
2017-01-05T03:51:07.769Z,1012
2017-01-05T03:52:13.781Z,1012
2017-01-05T03:53:19.804Z,1012
2017-01-05T03:54:25.817Z,1012
2017-01-05T03:55:31.837Z,1012
2017-01-05T03:56:37.853Z,1012
2017-01-05T03:57:43.872Z,1012
2017-01-05T03:58:49.897Z,1012
2017-01-05T03:59:55.920Z,1012
2017-01-05T04:01:01.935Z,1012
2017-01-05T04:02:07.947Z,1012
2017-01-05T04:03:13.969Z,1013
2017-01-05T04:04:19.988Z,1012
2017-01-05T04:05:26.008Z,1012
2017-01-05T04:06:32.032Z,1013
2017-01-05T04:07:38.056Z,1013
2017-01-05T04:08:44.082Z,1013
2017-01-05T04:09:50.104Z,1012
2017-01-05T04:10:56.129Z,1013
2017-01-05T04:12:02.148Z,1013
2017-01-05T04:13:08.169Z,1013
2017-01-05T04:14:14.190Z,1013
2017-01-05T04:15:20.214Z,1013
2017-01-05T04:16:26.241Z,1013
2017-01-05T04:17:32.264Z,1013
2017-01-05T04:18:38.283Z,1013
2017-01-05T04:19:44.307Z,1013
2017-01-05T04:20:50.331Z,1013
2017-01-05T04:21:56.354Z,1013
2017-01-05T04:23:02.363Z,1013
2017-01-05T04:24:08.388Z,1013
2017-01-05T04:25:14.420Z,1013
2017-01-05T04:26:20.437Z,1013
2017-01-05T04:27:26.451Z,1013
2017-01-05T04:28:32.480Z,1013
2017-01-05T04:29:38.499Z,1013
2017-01-05T04:30:44.517Z,1013
2017-01-05T04:31:50.550Z,1013
2017-01-05T04:32:56.558Z,1013
2017-01-05T04:34:02.570Z,1013
2017-01-05T04:35:08.591Z,1013
2017-01-05T04:36:14.623Z,1013
2017-01-05T04:37:20.647Z,1013
2017-01-05T04:38:26.665Z,1013
2017-01-05T04:39:32.684Z,1013
2017-01-05T04:40:38.708Z,1013
2017-01-05T04:41:44.737Z,1013
2017-01-05T04:42:50.756Z,1013
2017-01-05T04:43:56.775Z,1013
2017-01-05T04:45:02.801Z,1013
2017-01-05T04:46:08.826Z,1013
2017-01-05T04:47:14.839Z,1013
2017-01-05T04:48:20.856Z,1013
2017-01-05T04:49:26.872Z,1014
2017-01-05T04:50:32.895Z,1013
2017-01-05T04:51:38.919Z,1013
2017-01-05T04:52:44.948Z,1014
2017-01-05T04:53:50.964Z,1013
2017-01-05T04:54:56.987Z,1014
2017-01-05T04:56:03.000Z,1014
2017-01-05T04:57:09.027Z,1014
2017-01-05T04:58:15.047Z,1014
2017-01-05T04:59:21.068Z,1014
2017-01-05T05:00:27.099Z,1014
2017-01-05T05:01:33.126Z,1014
2017-01-05T05:02:39.143Z,1014
2017-01-05T05:03:45.166Z,1014
2017-01-05T05:04:51.187Z,1014
2017-01-05T05:05:57.213Z,1014
2017-01-05T05:07:03.239Z,1014
2017-01-05T05:08:09.266Z,1014
2017-01-05T05:09:15.287Z,1014
2017-01-05T05:10:21.306Z,1014
2017-01-05T05:11:27.329Z,1014
2017-01-05T05:12:33.355Z,1014
2017-01-05T05:13:39.384Z,1014
2017-01-05T05:14:45.401Z,1014
2017-01-05T05:15:51.421Z,1014
2017-01-05T05:16:57.438Z,1014
2017-01-05T05:18:03.466Z,1014
2017-01-05T05:19:09.488Z,1014
2017-01-05T05:20:15.510Z,1014
2017-01-05T05:21:21.530Z,1014
2017-01-05T05:22:27.554Z,1014
2017-01-05T05:23:33.576Z,1014
2017-01-05T05:24:39.598Z,1014
2017-01-05T05:25:45.616Z,1014
2017-01-05T05:26:51.644Z,1014
2017-01-05T05:27:57.665Z,1014
2017-01-05T05:29:03.681Z,1014
2017-01-05T05:30:09.698Z,1014
2017-01-05T05:31:15.724Z,1014
2017-01-05T05:32:21.747Z,1014
2017-01-05T05:33:27.765Z,1014
2017-01-05T05:34:33.786Z,1014
2017-01-05T05:35:39.812Z,1014
2017-01-05T05:36:45.834Z,1014
2017-01-05T05:37:51.858Z,1014
2017-01-05T05:38:57.881Z,1014
2017-01-05T05:40:03.898Z,1014
2017-01-05T05:41:09.914Z,1014
2017-01-05T05:42:15.936Z,1014
2017-01-05T05:43:21.959Z,1014
2017-01-05T05:44:27.978Z,1014
2017-01-05T05:45:34.000Z,1014
2017-01-05T05:46:40.022Z,1014
2017-01-05T05:47:46.051Z,1015
2017-01-05T05:48:52.079Z,1014
2017-01-05T05:49:58.091Z,1015
2017-01-05T05:51:04.108Z,1015
2017-01-05T05:52:10.135Z,1015
2017-01-05T05:53:16.159Z,1015
2017-01-05T05:54:22.181Z,1015
2017-01-05T05:55:28.199Z,1015
2017-01-05T05:56:34.224Z,1015
2017-01-05T05:57:40.248Z,1015
2017-01-05T05:58:46.271Z,1015
2017-01-05T05:59:52.288Z,1015
2017-01-05T06:00:58.321Z,1015
2017-01-05T06:02:04.340Z,1015
2017-01-05T06:03:10.356Z,1015
2017-01-05T06:04:16.385Z,1015
2017-01-05T06:05:22.416Z,1015
2017-01-05T06:06:27.769Z,1015
2017-01-05T06:07:33.789Z,1015
2017-01-05T06:08:39.816Z,1015
2017-01-05T06:09:45.826Z,1015
2017-01-05T06:10:51.846Z,1015
2017-01-05T06:11:57.865Z,1015
2017-01-05T06:13:03.899Z,1015
2017-01-05T06:14:09.916Z,1015
2017-01-05T06:15:15.936Z,1015
2017-01-05T06:16:21.964Z,1015
2017-01-05T06:17:27.989Z,1015
2017-01-05T06:18:34.008Z,1015
2017-01-05T06:19:40.032Z,1015
2017-01-05T06:20:46.051Z,1015
2017-01-05T06:21:52.069Z,1015
2017-01-05T06:22:58.092Z,1015
2017-01-05T06:24:04.119Z,1015
2017-01-05T06:25:10.140Z,1016
2017-01-05T06:26:16.158Z,1016
2017-01-05T06:27:22.188Z,1015
2017-01-05T06:28:28.217Z,1016
2017-01-05T06:29:34.238Z,1016
2017-01-05T06:30:40.257Z,1016
2017-01-05T06:31:46.281Z,1016
2017-01-05T06:32:52.303Z,1016
2017-01-05T06:33:58.321Z,1016
2017-01-05T06:35:04.333Z,1016
2017-01-05T06:36:10.360Z,1016
2017-01-05T06:37:16.379Z,1016
2017-01-05T06:38:22.401Z,1016
2017-01-05T06:39:28.433Z,1016
2017-01-05T06:40:34.454Z,1016
2017-01-05T06:41:40.464Z,1016
2017-01-05T06:42:46.490Z,1016
2017-01-05T06:43:52.519Z,1016
2017-01-05T06:44:58.543Z,1016
2017-01-05T06:46:04.570Z,1016
2017-01-05T06:47:10.591Z,1016
2017-01-05T06:48:16.609Z,1016
2017-01-05T06:49:22.636Z,1016
2017-01-05T06:50:28.657Z,1016
2017-01-05T06:51:34.677Z,1016
2017-01-05T06:52:40.698Z,1016
2017-01-05T06:53:46.719Z,1016
2017-01-05T06:54:52.742Z,1016
2017-01-05T06:55:58.760Z,1016
2017-01-05T06:57:04.790Z,1016
2017-01-05T06:58:10.813Z,1016
2017-01-05T06:59:16.829Z,1016
2017-01-05T07:00:22.851Z,1016
2017-01-05T07:01:28.865Z,1016
2017-01-05T07:02:34.889Z,1016
2017-01-05T07:03:40.907Z,1016
2017-01-05T07:04:46.932Z,1017
2017-01-05T07:05:52.950Z,1017
2017-01-05T07:06:58.976Z,1017
2017-01-05T07:08:04.991Z,1017
2017-01-05T07:09:11.013Z,1017
2017-01-05T07:10:17.031Z,1017
2017-01-05T07:11:23.051Z,1017
2017-01-05T07:12:29.075Z,1017
2017-01-05T07:13:35.095Z,1017
2017-01-05T07:14:41.120Z,1017
2017-01-05T07:15:47.147Z,1017
2017-01-05T07:16:53.174Z,1017
2017-01-05T07:17:59.192Z,1017
2017-01-05T07:19:05.216Z,1017
2017-01-05T07:20:11.241Z,1017
2017-01-05T07:21:17.251Z,1017
2017-01-05T07:22:23.271Z,1017
2017-01-05T07:23:29.301Z,1017
2017-01-05T07:24:35.325Z,1017
2017-01-05T07:25:41.350Z,1017
2017-01-05T07:26:47.364Z,1017
2017-01-05T07:27:53.391Z,1017
2017-01-05T07:28:59.410Z,1017
2017-01-05T07:30:05.440Z,1017
2017-01-05T07:31:11.466Z,1017
2017-01-05T07:32:17.492Z,1017
2017-01-05T07:33:23.511Z,1017
2017-01-05T07:34:29.539Z,1017
2017-01-05T07:35:35.555Z,1017
2017-01-05T07:36:41.579Z,1017
2017-01-05T07:37:47.616Z,1017
2017-01-05T07:38:53.621Z,1017
2017-01-05T07:39:59.633Z,1017
2017-01-05T07:41:05.659Z,1017
2017-01-05T07:42:11.686Z,1018
2017-01-05T07:43:17.699Z,1018
2017-01-05T07:44:23.732Z,1018
2017-01-05T07:45:29.750Z,1018
2017-01-05T07:46:35.778Z,1018
2017-01-05T07:47:41.800Z,1018
2017-01-05T07:48:47.828Z,1018
2017-01-05T07:49:53.846Z,1018
2017-01-05T07:50:59.869Z,1018
2017-01-05T07:52:05.892Z,1018
2017-01-05T07:53:11.918Z,1018
2017-01-05T07:54:17.933Z,1018
2017-01-05T07:55:23.953Z,1018
2017-01-05T07:56:29.972Z,1018
2017-01-05T07:57:35.996Z,1018
2017-01-05T07:58:42.022Z,1018
2017-01-05T07:59:48.048Z,1018
2017-01-05T08:00:54.071Z,1018
2017-01-05T08:02:00.093Z,1018
2017-01-05T08:03:06.110Z,1018
2017-01-05T08:04:12.138Z,1018
2017-01-05T08:05:18.160Z,1018
2017-01-05T08:06:24.178Z,1018
2017-01-05T08:07:30.211Z,1018
2017-01-05T08:08:36.234Z,1018
2017-01-05T08:09:42.251Z,1018
2017-01-05T08:10:48.269Z,1018
2017-01-05T08:11:54.290Z,1018
2017-01-05T08:13:00.307Z,1018
2017-01-05T08:14:06.329Z,1018
2017-01-05T08:15:12.352Z,1018
2017-01-05T08:16:18.371Z,1018
2017-01-05T08:17:24.390Z,1018
2017-01-05T08:18:30.414Z,1019
2017-01-05T08:19:36.439Z,1018
2017-01-05T08:20:42.464Z,1018
2017-01-05T08:21:48.487Z,1019
2017-01-05T08:22:54.508Z,1019
2017-01-05T08:24:00.525Z,1018
2017-01-05T08:25:06.548Z,1019
2017-01-05T08:26:12.577Z,1019
2017-01-05T08:27:18.601Z,1019
2017-01-05T08:28:24.635Z,1019
2017-01-05T08:29:30.663Z,1019
2017-01-05T08:30:36.684Z,1019
2017-01-05T08:31:42.700Z,1019
2017-01-05T08:32:48.718Z,1019
2017-01-05T08:33:54.741Z,1019
2017-01-05T08:35:00.778Z,1019
2017-01-05T08:36:06.802Z,1019
2017-01-05T08:37:12.825Z,1019
2017-01-05T08:38:18.846Z,1019
2017-01-05T08:39:24.877Z,1019
2017-01-05T08:40:30.896Z,1019
2017-01-05T08:41:36.917Z,1019
2017-01-05T08:42:42.947Z,1019
2017-01-05T08:43:48.968Z,1019
2017-01-05T08:44:54.992Z,1019
2017-01-05T08:46:01.016Z,1019
2017-01-05T08:47:07.054Z,1019
2017-01-05T08:48:13.069Z,1019
2017-01-05T08:49:19.080Z,1019
2017-01-05T08:50:25.098Z,1019
2017-01-05T08:51:31.125Z,1019
2017-01-05T08:52:37.151Z,1019
2017-01-05T08:53:43.170Z,1019
2017-01-05T08:54:49.200Z,1019
2017-01-05T08:55:55.223Z,1019
2017-01-05T08:57:01.246Z,1019
2017-01-05T08:58:07.272Z,1019
2017-01-05T08:59:13.283Z,1019
2017-01-05T09:00:19.308Z,1019
2017-01-05T09:01:25.336Z,1019
2017-01-05T09:02:31.376Z,1019
2017-01-05T09:03:37.396Z,1019
2017-01-05T09:04:43.420Z,1020
2017-01-05T09:05:49.450Z,1020
2017-01-05T09:06:55.479Z,1020
2017-01-05T09:08:01.493Z,1020
2017-01-05T09:09:07.514Z,1020
2017-01-05T09:10:13.539Z,1020
2017-01-05T09:11:19.549Z,1020
2017-01-05T09:12:25.608Z,1020
2017-01-05T09:13:31.623Z,1020
2017-01-05T09:14:37.649Z,1020
2017-01-05T09:15:43.663Z,1020
2017-01-05T09:16:49.692Z,1020
2017-01-05T09:17:55.707Z,1020
2017-01-05T09:19:01.723Z,1020
2017-01-05T09:20:07.736Z,1020
2017-01-05T09:21:13.762Z,1020
2017-01-05T09:22:19.778Z,1020
2017-01-05T09:23:25.804Z,1020
2017-01-05T09:24:31.828Z,1020
2017-01-05T09:25:37.941Z,1020
2017-01-05T09:26:43.952Z,1020
2017-01-05T09:27:49.975Z,1020
2017-01-05T09:28:55.993Z,1020
2017-01-05T09:30:02.011Z,1020
2017-01-05T09:31:08.025Z,1020
2017-01-05T09:32:14.064Z,1020
2017-01-05T09:33:20.077Z,1020
2017-01-05T09:34:26.093Z,1020
2017-01-05T09:35:32.125Z,1020
2017-01-05T09:36:38.148Z,1020
2017-01-05T09:37:44.152Z,1020
2017-01-05T09:38:50.172Z,1020
2017-01-05T09:39:56.202Z,1020
2017-01-05T09:41:02.222Z,1020
2017-01-05T09:42:08.233Z,1020
2017-01-05T09:43:14.252Z,1020
2017-01-05T09:44:20.274Z,1020
2017-01-05T09:45:26.304Z,1020
2017-01-05T09:46:32.318Z,1020
2017-01-05T09:47:38.342Z,1020
2017-01-05T09:48:44.355Z,1020
2017-01-05T09:49:50.374Z,1020
2017-01-05T09:50:56.390Z,1020
2017-01-05T09:52:02.405Z,1020
2017-01-05T09:53:08.430Z,1021
2017-01-05T09:54:14.457Z,1020
2017-01-05T09:55:20.476Z,1020
2017-01-05T09:56:26.729Z,1020
2017-01-05T09:57:32.745Z,1020
2017-01-05T09:58:38.761Z,1021
2017-01-05T09:59:44.780Z,1021
2017-01-05T10:00:50.795Z,1021
2017-01-05T10:01:56.805Z,1021
2017-01-05T10:03:02.825Z,1021
2017-01-05T10:04:08.844Z,1021
2017-01-05T10:05:14.873Z,1021
2017-01-05T10:06:20.891Z,1021
2017-01-05T10:07:26.917Z,1021
2017-01-05T10:08:32.937Z,1021
2017-01-05T10:09:38.955Z,1021
2017-01-05T10:10:44.978Z,1021
2017-01-05T10:11:51.001Z,1021
2017-01-05T10:12:57.022Z,1021
2017-01-05T10:14:03.040Z,1021
2017-01-05T10:15:09.063Z,1021
2017-01-05T10:16:15.097Z,1021
2017-01-05T10:17:21.100Z,1021
2017-01-05T10:18:27.166Z,1021
2017-01-05T10:19:33.168Z,1021
2017-01-05T10:20:39.191Z,1021
2017-01-05T10:21:45.217Z,1021
2017-01-05T10:22:51.228Z,1021
2017-01-05T10:23:57.249Z,1021
2017-01-05T10:25:03.271Z,1021
2017-01-05T10:26:09.294Z,1021
2017-01-05T10:27:15.309Z,1021
2017-01-05T10:28:21.332Z,1021
2017-01-05T10:29:30.963Z,1021
2017-01-05T10:30:36.979Z,1021
2017-01-05T10:31:43.002Z,1021
2017-01-05T10:32:49.029Z,1021
2017-01-05T10:33:55.054Z,1021
2017-01-05T10:35:01.072Z,1021
2017-01-05T10:36:07.491Z,1021
2017-01-05T10:37:13.507Z,1021
2017-01-05T10:38:19.531Z,1021
2017-01-05T10:39:25.542Z,1021
2017-01-05T10:40:31.571Z,1021
2017-01-05T10:41:37.591Z,1021
2017-01-05T10:42:43.613Z,1021
2017-01-05T10:43:49.623Z,1021
2017-01-05T10:44:55.642Z,1021
2017-01-05T10:46:01.668Z,1021
2017-01-05T10:47:07.688Z,1021
2017-01-05T10:48:13.703Z,1021
2017-01-05T10:49:19.719Z,1021
2017-01-05T10:50:25.739Z,1021
2017-01-05T10:51:31.751Z,1021
2017-01-05T10:52:37.767Z,1021
2017-01-05T10:53:43.795Z,1021
2017-01-05T10:54:49.818Z,1021
2017-01-05T10:55:55.842Z,1021
2017-01-05T10:57:01.865Z,1021
2017-01-05T10:58:07.880Z,1021
2017-01-05T10:59:13.896Z,1021
2017-01-05T11:00:19.922Z,1021
2017-01-05T11:01:25.940Z,1021
2017-01-05T11:02:31.954Z,1021
2017-01-05T11:03:37.978Z,1021
2017-01-05T11:04:44.001Z,1022
2017-01-05T11:05:50.020Z,1021
2017-01-05T11:06:56.035Z,1021
2017-01-05T11:08:02.080Z,1021
2017-01-05T11:09:08.075Z,1021
2017-01-05T11:10:14.101Z,1021
2017-01-05T11:11:20.119Z,1021
2017-01-05T11:12:26.146Z,1021
2017-01-05T11:13:32.172Z,1021
2017-01-05T11:14:38.196Z,1021
2017-01-05T11:15:44.209Z,1021
2017-01-05T11:16:50.228Z,1022
2017-01-05T11:17:56.249Z,1021
2017-01-05T11:19:02.459Z,1021
2017-01-05T11:20:08.454Z,1022
2017-01-05T11:21:14.476Z,1022
2017-01-05T11:22:20.502Z,1022
2017-01-05T11:23:26.524Z,1022
2017-01-05T11:24:32.538Z,1022
2017-01-05T11:25:38.559Z,1022
2017-01-05T11:26:44.746Z,1022
2017-01-05T11:27:50.757Z,1022
2017-01-05T11:28:56.774Z,1022
2017-01-05T11:30:02.883Z,1022
2017-01-05T11:31:08.900Z,1022
2017-01-05T11:32:14.924Z,1022
2017-01-05T11:33:20.942Z,1022
2017-01-05T11:34:27.208Z,1022
2017-01-05T11:35:33.225Z,1022
2017-01-05T11:36:39.244Z,1022
2017-01-05T11:37:45.262Z,1022
2017-01-05T11:38:51.545Z,1022
2017-01-05T11:39:57.561Z,1022
2017-01-05T11:41:03.575Z,1022
2017-01-05T11:42:09.597Z,1022
2017-01-05T11:43:15.621Z,1022
2017-01-05T11:44:21.646Z,1022
2017-01-05T11:45:27.657Z,1022
2017-01-05T11:46:33.677Z,1022
2017-01-05T11:47:39.692Z,1022
2017-01-05T11:48:45.717Z,1022
2017-01-05T11:49:51.765Z,1022
2017-01-05T11:50:57.786Z,1022
2017-01-05T11:52:03.808Z,1022
2017-01-05T11:53:09.829Z,1022
2017-01-05T11:54:15.846Z,1022
2017-01-05T11:55:21.861Z,1022
2017-01-05T11:56:27.877Z,1022
2017-01-05T11:57:33.898Z,1022
2017-01-05T11:58:39.924Z,1022
2017-01-05T11:59:45.946Z,1022
2017-01-05T12:00:51.969Z,1022
2017-01-05T12:01:57.999Z,1022
2017-01-05T12:03:04.017Z,1022
2017-01-05T12:04:10.029Z,1022
2017-01-05T12:05:16.049Z,1022
2017-01-05T12:06:22.071Z,1022
2017-01-05T12:07:28.083Z,1022
2017-01-05T12:08:34.109Z,1022
2017-01-05T12:09:40.131Z,1022
2017-01-05T12:10:46.154Z,1022
2017-01-05T12:11:52.161Z,1022
2017-01-05T12:12:58.187Z,1022
2017-01-05T12:14:04.206Z,1022
2017-01-05T12:15:10.222Z,1022
2017-01-05T12:16:16.234Z,1022
2017-01-05T12:17:22.257Z,1022
2017-01-05T12:18:28.279Z,1022
2017-01-05T12:19:34.294Z,1022
2017-01-05T12:20:40.416Z,1022
2017-01-05T12:21:46.406Z,1022
2017-01-05T12:22:52.442Z,1022
2017-01-05T12:23:58.459Z,1022
2017-01-05T12:25:04.481Z,1022
2017-01-05T12:26:10.614Z,1022
2017-01-05T12:27:16.635Z,1022
2017-01-05T12:28:22.665Z,1022
2017-01-05T12:29:28.689Z,1022
2017-01-05T12:30:34.714Z,1023
2017-01-05T12:31:40.741Z,1023
2017-01-05T12:33:52.780Z,1023
2017-01-05T12:34:58.817Z,1023
2017-01-05T12:36:04.932Z,1023
2017-01-05T12:37:10.945Z,1023
2017-01-05T12:38:16.967Z,1023
2017-01-05T12:39:22.986Z,1023
2017-01-05T12:40:29.013Z,1023
2017-01-05T12:41:35.031Z,1022
2017-01-05T12:42:41.052Z,1022
2017-01-05T12:43:47.071Z,1022
2017-01-05T12:44:53.085Z,1023
2017-01-05T12:45:59.110Z,1023
2017-01-05T12:47:05.135Z,1023
2017-01-05T12:48:11.151Z,1023
2017-01-05T12:49:17.177Z,1023
2017-01-05T12:50:23.204Z,1023
2017-01-05T12:51:29.218Z,1023
2017-01-05T12:52:35.239Z,1023
2017-01-05T12:53:41.249Z,1023
2017-01-05T12:54:47.273Z,1023
2017-01-05T12:55:53.300Z,1023
2017-01-05T12:56:59.319Z,1023
2017-01-05T12:58:05.334Z,1023
2017-01-05T12:59:11.457Z,1023
2017-01-05T13:00:17.375Z,1023
2017-01-05T13:01:23.387Z,1023
2017-01-05T13:02:29.400Z,1023
2017-01-05T13:03:35.415Z,1023
2017-01-05T13:04:41.437Z,1023
2017-01-05T13:05:47.458Z,1023
2017-01-05T13:06:53.486Z,1023
2017-01-05T13:07:59.513Z,1023
2017-01-05T13:09:05.530Z,1023
2017-01-05T13:10:11.553Z,1023
2017-01-05T13:11:17.588Z,1023
2017-01-05T13:12:23.608Z,1023
2017-01-05T13:13:29.620Z,1023
2017-01-05T13:14:35.638Z,1023
2017-01-05T13:15:41.664Z,1023
2017-01-05T13:16:47.910Z,1023
2017-01-05T13:17:53.935Z,1023
2017-01-05T13:18:59.943Z,1023
2017-01-05T13:20:05.968Z,1023
2017-01-05T13:21:11.984Z,1023
2017-01-05T13:22:18.020Z,1023
2017-01-05T13:23:24.042Z,1023
2017-01-05T13:24:30.063Z,1023
2017-01-05T13:25:36.082Z,1023
2017-01-05T13:26:42.104Z,1023
2017-01-05T13:27:48.124Z,1024
2017-01-05T13:28:54.155Z,1023
2017-01-05T13:30:00.173Z,1023
2017-01-05T13:31:06.391Z,1023
2017-01-05T13:32:12.404Z,1024
2017-01-05T13:33:18.428Z,1024
2017-01-05T13:34:24.449Z,1023
2017-01-05T13:35:30.461Z,1024
2017-01-05T13:36:36.489Z,1024
2017-01-05T13:37:42.514Z,1024
2017-01-05T13:38:48.542Z,1024
2017-01-05T13:39:54.600Z,1024
2017-01-05T13:41:00.609Z,1024
2017-01-05T13:42:06.633Z,1024
2017-01-05T13:43:12.656Z,1024
2017-01-05T13:44:18.672Z,1024
2017-01-05T13:45:24.691Z,1024
2017-01-05T13:46:30.713Z,1024
2017-01-05T13:47:36.736Z,1024
2017-01-05T13:48:42.748Z,1024
2017-01-05T13:49:48.778Z,1024
2017-01-05T13:50:54.799Z,1024
2017-01-05T13:52:00.818Z,1024
2017-01-05T13:53:06.840Z,1024
2017-01-05T13:54:12.862Z,1024
2017-01-05T13:55:18.885Z,1024
2017-01-05T13:56:24.908Z,1024
2017-01-05T13:57:30.927Z,1024
2017-01-05T13:58:36.953Z,1024
2017-01-05T13:59:42.973Z,1024
2017-01-05T14:00:48.995Z,1024
2017-01-05T14:01:55.006Z,1024
2017-01-05T14:03:01.035Z,1024
2017-01-05T14:04:07.065Z,1024
2017-01-05T14:05:13.076Z,1024
2017-01-05T14:06:19.097Z,1024
2017-01-05T14:07:25.125Z,1024
2017-01-05T14:08:31.151Z,1024
2017-01-05T14:09:37.169Z,1024
2017-01-05T14:10:43.190Z,1024
2017-01-05T14:11:49.210Z,1024
2017-01-05T14:12:55.230Z,1024
2017-01-05T14:14:01.243Z,1024
2017-01-05T14:15:07.261Z,1024
2017-01-05T14:16:13.279Z,1024
2017-01-05T14:17:19.312Z,1024
2017-01-05T14:18:25.342Z,1024
2017-01-05T14:19:31.362Z,1024
2017-01-05T14:20:37.377Z,1024
2017-01-05T14:21:43.406Z,1024
2017-01-05T14:22:49.425Z,1025
2017-01-05T14:23:55.442Z,1024
2017-01-05T14:25:01.464Z,1025
2017-01-05T14:26:07.489Z,1025
2017-01-05T14:27:13.506Z,1025
2017-01-05T14:28:19.532Z,1025
2017-01-05T14:29:25.550Z,1025
2017-01-05T14:30:31.572Z,1025
2017-01-05T14:31:37.601Z,1025
2017-01-05T14:32:43.622Z,1025
2017-01-05T14:33:49.638Z,1025
2017-01-05T14:34:55.668Z,1025
2017-01-05T14:36:01.699Z,1025
2017-01-05T14:37:07.713Z,1025
2017-01-05T14:38:13.738Z,1025
2017-01-05T14:39:19.768Z,1025